sensor_id;sensor_type;location;lat;lon;timestamp;temperature;humidity
68658;DHT22;55639;53.480;-2.228;2022-08-03T00:01:49;27.70;49.20
68658;DHT22;55639;53.480;-2.228;2022-08-03T00:04:15;27.70;49.20
68658;DHT22;55639;53.480;-2.228;2022-08-03T00:06:40;27.70;49.20
68658;DHT22;55639;53.480;-2.228;2022-08-03T00:09:06;27.70;49.20
68658;DHT22;55639;53.480;-2.228;2022-08-03T00:11:32;27.70;49.30
68658;DHT22;55639;53.480;-2.228;2022-08-03T00:13:58;27.70;49.20
68658;DHT22;55639;53.480;-2.228;2022-08-03T00:16:23;27.70;49.20
68658;DHT22;55639;53.480;-2.228;2022-08-03T00:18:50;27.70;49.20
68658;DHT22;55639;53.480;-2.228;2022-08-03T00:21:16;27.70;49.20
68658;DHT22;55639;53.480;-2.228;2022-08-03T00:23:42;27.70;49.20
68658;DHT22;55639;53.480;-2.228;2022-08-03T00:26:07;27.70;49.20
68658;DHT22;55639;53.480;-2.228;2022-08-03T00:28:33;27.70;49.30
68658;DHT22;55639;53.480;-2.228;2022-08-03T00:30:58;27.70;49.20
68658;DHT22;55639;53.480;-2.228;2022-08-03T00:33:24;27.70;49.20
68658;DHT22;55639;53.480;-2.228;2022-08-03T00:35:50;27.70;49.20
68658;DHT22;55639;53.480;-2.228;2022-08-03T00:38:16;27.70;49.20
68658;DHT22;55639;53.480;-2.228;2022-08-03T00:40:42;27.70;49.20
68658;DHT22;55639;53.480;-2.228;2022-08-03T00:43:08;27.70;49.20
68658;DHT22;55639;53.480;-2.228;2022-08-03T00:45:36;27.70;49.20
68658;DHT22;55639;53.480;-2.228;2022-08-03T00:48:04;27.70;49.20
68658;DHT22;55639;53.480;-2.228;2022-08-03T00:50:33;27.70;49.20
68658;DHT22;55639;53.480;-2.228;2022-08-03T00:53:01;27.70;49.20
68658;DHT22;55639;53.480;-2.228;2022-08-03T00:55:27;27.70;49.20
68658;DHT22;55639;53.480;-2.228;2022-08-03T00:57:53;27.70;49.20
68658;DHT22;55639;53.480;-2.228;2022-08-03T01:00:22;27.70;49.30
68658;DHT22;55639;53.480;-2.228;2022-08-03T01:02:48;27.70;49.20
68658;DHT22;55639;53.480;-2.228;2022-08-03T01:05:15;27.70;49.20
68658;DHT22;55639;53.480;-2.228;2022-08-03T01:10:22;27.70;49.20
68658;DHT22;55639;53.480;-2.228;2022-08-03T01:13:22;27.70;49.20
68658;DHT22;55639;53.480;-2.228;2022-08-03T01:15:55;27.70;49.20
68658;DHT22;55639;53.480;-2.228;2022-08-03T01:18:44;27.70;49.20
68658;DHT22;55639;53.480;-2.228;2022-08-03T01:21:24;27.70;49.20
68658;DHT22;55639;53.480;-2.228;2022-08-03T01:26:58;27.70;49.30
68658;DHT22;55639;53.480;-2.228;2022-08-03T01:32:11;27.70;49.20
68658;DHT22;55639;53.480;-2.228;2022-08-03T01:34:46;27.70;49.30
68658;DHT22;55639;53.480;-2.228;2022-08-03T01:37:15;27.70;49.30
68658;DHT22;55639;53.480;-2.228;2022-08-03T01:39:46;27.70;49.30
68658;DHT22;55639;53.480;-2.228;2022-08-03T01:42:13;27.70;49.30
68658;DHT22;55639;53.480;-2.228;2022-08-03T01:44:43;27.70;49.30
68658;DHT22;55639;53.480;-2.228;2022-08-03T01:47:09;27.70;49.30
68658;DHT22;55639;53.480;-2.228;2022-08-03T01:49:38;27.70;49.40
68658;DHT22;55639;53.480;-2.228;2022-08-03T01:52:05;27.70;49.70
68658;DHT22;55639;53.480;-2.228;2022-08-03T01:54:36;27.70;49.30
68658;DHT22;55639;53.480;-2.228;2022-08-03T01:57:05;27.70;49.30
68658;DHT22;55639;53.480;-2.228;2022-08-03T01:59:34;27.70;49.30
68658;DHT22;55639;53.480;-2.228;2022-08-03T02:04:37;27.70;49.30
68658;DHT22;55639;53.480;-2.228;2022-08-03T02:07:04;27.70;49.40
68658;DHT22;55639;53.480;-2.228;2022-08-03T02:09:32;27.70;49.40
68658;DHT22;55639;53.480;-2.228;2022-08-03T02:11:59;27.70;49.30
68658;DHT22;55639;53.480;-2.228;2022-08-03T02:14:25;27.70;49.30
68658;DHT22;55639;53.480;-2.228;2022-08-03T02:16:53;27.70;49.40
68658;DHT22;55639;53.480;-2.228;2022-08-03T02:19:19;27.70;49.30
68658;DHT22;55639;53.480;-2.228;2022-08-03T02:21:46;27.70;49.40
68658;DHT22;55639;53.480;-2.228;2022-08-03T02:24:13;27.70;49.40
68658;DHT22;55639;53.480;-2.228;2022-08-03T02:26:40;27.70;49.40
68658;DHT22;55639;53.480;-2.228;2022-08-03T02:29:14;27.70;49.40
68658;DHT22;55639;53.480;-2.228;2022-08-03T02:31:42;27.70;49.40
68658;DHT22;55639;53.480;-2.228;2022-08-03T02:34:13;27.70;49.40
68658;DHT22;55639;53.480;-2.228;2022-08-03T02:36:41;27.70;49.40
68658;DHT22;55639;53.480;-2.228;2022-08-03T02:39:10;27.70;49.40
68658;DHT22;55639;53.480;-2.228;2022-08-03T02:41:44;27.70;49.40
68658;DHT22;55639;53.480;-2.228;2022-08-03T02:44:11;27.70;49.50
68658;DHT22;55639;53.480;-2.228;2022-08-03T02:46:44;27.70;49.50
68658;DHT22;55639;53.480;-2.228;2022-08-03T02:49:12;27.70;49.40
68658;DHT22;55639;53.480;-2.228;2022-08-03T02:51:39;27.70;49.50
68658;DHT22;55639;53.480;-2.228;2022-08-03T02:54:06;27.70;49.50
68658;DHT22;55639;53.480;-2.228;2022-08-03T02:56:34;27.70;49.60
68658;DHT22;55639;53.480;-2.228;2022-08-03T02:59:01;27.70;49.50
68658;DHT22;55639;53.480;-2.228;2022-08-03T03:01:28;27.70;49.60
68658;DHT22;55639;53.480;-2.228;2022-08-03T03:03:56;27.70;49.60
68658;DHT22;55639;53.480;-2.228;2022-08-03T03:06:23;27.70;49.50
68658;DHT22;55639;53.480;-2.228;2022-08-03T03:08:50;27.70;49.50
68658;DHT22;55639;53.480;-2.228;2022-08-03T03:11:18;27.70;49.50
68658;DHT22;55639;53.480;-2.228;2022-08-03T03:13:45;27.70;49.50
68658;DHT22;55639;53.480;-2.228;2022-08-03T03:16:13;27.70;49.50
68658;DHT22;55639;53.480;-2.228;2022-08-03T03:18:40;27.70;49.60
68658;DHT22;55639;53.480;-2.228;2022-08-03T03:21:08;27.70;49.50
68658;DHT22;55639;53.480;-2.228;2022-08-03T03:23:36;27.70;49.50
68658;DHT22;55639;53.480;-2.228;2022-08-03T03:26:03;27.70;49.60
68658;DHT22;55639;53.480;-2.228;2022-08-03T03:28:30;27.70;49.60
68658;DHT22;55639;53.480;-2.228;2022-08-03T03:30:57;27.70;49.50
68658;DHT22;55639;53.480;-2.228;2022-08-03T03:33:23;27.70;49.60
68658;DHT22;55639;53.480;-2.228;2022-08-03T03:35:49;27.70;49.60
68658;DHT22;55639;53.480;-2.228;2022-08-03T03:38:16;27.70;49.60
68658;DHT22;55639;53.480;-2.228;2022-08-03T03:40:42;27.70;49.50
68658;DHT22;55639;53.480;-2.228;2022-08-03T03:43:09;27.70;49.60
68658;DHT22;55639;53.480;-2.228;2022-08-03T03:45:35;27.70;49.60
68658;DHT22;55639;53.480;-2.228;2022-08-03T03:48:02;27.70;49.60
68658;DHT22;55639;53.480;-2.228;2022-08-03T03:50:30;27.70;49.60
68658;DHT22;55639;53.480;-2.228;2022-08-03T03:52:57;27.70;49.60
68658;DHT22;55639;53.480;-2.228;2022-08-03T03:55:22;27.70;49.50
68658;DHT22;55639;53.480;-2.228;2022-08-03T03:57:48;27.70;49.50
68658;DHT22;55639;53.480;-2.228;2022-08-03T04:00:15;27.70;49.60
68658;DHT22;55639;53.480;-2.228;2022-08-03T04:02:42;27.70;49.50
68658;DHT22;55639;53.480;-2.228;2022-08-03T04:05:08;27.70;49.60
68658;DHT22;55639;53.480;-2.228;2022-08-03T04:07:58;27.70;49.60
68658;DHT22;55639;53.480;-2.228;2022-08-03T04:10:53;27.70;49.50
68658;DHT22;55639;53.480;-2.228;2022-08-03T04:13:50;27.70;49.60
68658;DHT22;55639;53.480;-2.228;2022-08-03T04:16:19;27.70;49.60
68658;DHT22;55639;53.480;-2.228;2022-08-03T04:18:50;27.70;49.60
68658;DHT22;55639;53.480;-2.228;2022-08-03T04:21:18;27.70;49.60
68658;DHT22;55639;53.480;-2.228;2022-08-03T04:23:52;27.70;49.70
68658;DHT22;55639;53.480;-2.228;2022-08-03T04:26:20;27.70;49.60
68658;DHT22;55639;53.480;-2.228;2022-08-03T04:28:47;27.70;49.60
68658;DHT22;55639;53.480;-2.228;2022-08-03T04:31:16;27.70;49.60
68658;DHT22;55639;53.480;-2.228;2022-08-03T04:33:43;27.70;49.60
68658;DHT22;55639;53.480;-2.228;2022-08-03T04:36:13;27.70;49.60
68658;DHT22;55639;53.480;-2.228;2022-08-03T04:38:48;27.70;49.60
68658;DHT22;55639;53.480;-2.228;2022-08-03T04:41:17;27.70;49.60
68658;DHT22;55639;53.480;-2.228;2022-08-03T04:43:44;27.70;49.70
68658;DHT22;55639;53.480;-2.228;2022-08-03T04:46:11;27.70;49.70
68658;DHT22;55639;53.480;-2.228;2022-08-03T04:48:37;27.70;49.70
68658;DHT22;55639;53.480;-2.228;2022-08-03T04:51:03;27.70;49.60
68658;DHT22;55639;53.480;-2.228;2022-08-03T04:53:29;27.70;49.60
68658;DHT22;55639;53.480;-2.228;2022-08-03T04:56:03;27.70;49.60
68658;DHT22;55639;53.480;-2.228;2022-08-03T04:58:28;27.70;49.60
68658;DHT22;55639;53.480;-2.228;2022-08-03T05:00:54;27.70;49.60
68658;DHT22;55639;53.480;-2.228;2022-08-03T05:03:20;27.70;49.60
68658;DHT22;55639;53.480;-2.228;2022-08-03T05:05:45;27.70;49.60
68658;DHT22;55639;53.480;-2.228;2022-08-03T05:08:11;27.70;49.60
68658;DHT22;55639;53.480;-2.228;2022-08-03T05:10:36;27.70;49.60
68658;DHT22;55639;53.480;-2.228;2022-08-03T05:13:02;27.70;49.60
68658;DHT22;55639;53.480;-2.228;2022-08-03T05:15:28;27.70;49.60
68658;DHT22;55639;53.480;-2.228;2022-08-03T05:17:54;27.70;49.70
68658;DHT22;55639;53.480;-2.228;2022-08-03T05:20:19;27.70;49.60
68658;DHT22;55639;53.480;-2.228;2022-08-03T05:22:45;27.70;49.60
68658;DHT22;55639;53.480;-2.228;2022-08-03T05:25:11;27.70;49.60
68658;DHT22;55639;53.480;-2.228;2022-08-03T05:27:37;27.70;49.60
68658;DHT22;55639;53.480;-2.228;2022-08-03T05:30:03;27.70;49.60
68658;DHT22;55639;53.480;-2.228;2022-08-03T05:32:28;27.70;49.70
68658;DHT22;55639;53.480;-2.228;2022-08-03T05:34:54;27.70;49.60
68658;DHT22;55639;53.480;-2.228;2022-08-03T05:37:20;27.70;49.50
68658;DHT22;55639;53.480;-2.228;2022-08-03T05:39:45;27.70;49.60
68658;DHT22;55639;53.480;-2.228;2022-08-03T05:42:14;27.70;49.60
68658;DHT22;55639;53.480;-2.228;2022-08-03T05:44:40;27.70;49.60
68658;DHT22;55639;53.480;-2.228;2022-08-03T05:47:06;27.70;49.60
68658;DHT22;55639;53.480;-2.228;2022-08-03T05:49:32;27.70;49.60
68658;DHT22;55639;53.480;-2.228;2022-08-03T05:51:57;27.70;49.60
68658;DHT22;55639;53.480;-2.228;2022-08-03T05:54:23;27.70;49.60
68658;DHT22;55639;53.480;-2.228;2022-08-03T05:56:48;27.70;49.60
68658;DHT22;55639;53.480;-2.228;2022-08-03T05:59:14;27.70;49.60
68658;DHT22;55639;53.480;-2.228;2022-08-03T06:01:39;27.70;49.60
68658;DHT22;55639;53.480;-2.228;2022-08-03T06:04:05;27.70;49.50
68658;DHT22;55639;53.480;-2.228;2022-08-03T06:06:31;27.70;49.60
68658;DHT22;55639;53.480;-2.228;2022-08-03T06:08:56;27.70;49.60
68658;DHT22;55639;53.480;-2.228;2022-08-03T06:11:22;27.70;49.60
68658;DHT22;55639;53.480;-2.228;2022-08-03T06:13:47;27.70;49.50
68658;DHT22;55639;53.480;-2.228;2022-08-03T06:16:13;27.70;49.50
68658;DHT22;55639;53.480;-2.228;2022-08-03T06:18:39;27.70;49.60
68658;DHT22;55639;53.480;-2.228;2022-08-03T06:21:05;27.70;49.60
68658;DHT22;55639;53.480;-2.228;2022-08-03T06:23:30;27.70;49.60
68658;DHT22;55639;53.480;-2.228;2022-08-03T06:25:56;27.70;49.60
68658;DHT22;55639;53.480;-2.228;2022-08-03T06:28:21;27.70;49.60
68658;DHT22;55639;53.480;-2.228;2022-08-03T06:30:47;27.70;49.60
68658;DHT22;55639;53.480;-2.228;2022-08-03T06:33:13;27.70;49.60
68658;DHT22;55639;53.480;-2.228;2022-08-03T06:35:38;27.70;49.60
68658;DHT22;55639;53.480;-2.228;2022-08-03T06:38:04;27.70;49.60
68658;DHT22;55639;53.480;-2.228;2022-08-03T06:40:30;27.70;49.50
68658;DHT22;55639;53.480;-2.228;2022-08-03T06:43:00;27.70;49.60
68658;DHT22;55639;53.480;-2.228;2022-08-03T06:45:27;27.70;49.60
68658;DHT22;55639;53.480;-2.228;2022-08-03T06:48:03;27.80;49.70
68658;DHT22;55639;53.480;-2.228;2022-08-03T06:50:29;27.70;49.90
68658;DHT22;55639;53.480;-2.228;2022-08-03T06:52:55;27.70;49.60
68658;DHT22;55639;53.480;-2.228;2022-08-03T06:55:21;27.70;49.60
68658;DHT22;55639;53.480;-2.228;2022-08-03T06:57:47;27.70;49.50
68658;DHT22;55639;53.480;-2.228;2022-08-03T07:00:13;27.70;49.60
68658;DHT22;55639;53.480;-2.228;2022-08-03T07:02:39;27.70;49.50
68658;DHT22;55639;53.480;-2.228;2022-08-03T07:05:06;27.70;49.40
68658;DHT22;55639;53.480;-2.228;2022-08-03T07:07:32;27.70;49.40
68658;DHT22;55639;53.480;-2.228;2022-08-03T07:09:58;27.80;49.60
68658;DHT22;55639;53.480;-2.228;2022-08-03T07:12:27;27.80;49.50
68658;DHT22;55639;53.480;-2.228;2022-08-03T07:14:53;27.80;49.50
68658;DHT22;55639;53.480;-2.228;2022-08-03T07:17:19;27.80;49.50
68658;DHT22;55639;53.480;-2.228;2022-08-03T07:19:45;27.80;49.40
68658;DHT22;55639;53.480;-2.228;2022-08-03T07:22:10;27.70;49.40
68658;DHT22;55639;53.480;-2.228;2022-08-03T07:24:36;27.80;49.50
68658;DHT22;55639;53.480;-2.228;2022-08-03T07:27:02;27.80;49.40
68658;DHT22;55639;53.480;-2.228;2022-08-03T07:29:28;27.80;49.50
68658;DHT22;55639;53.480;-2.228;2022-08-03T07:31:53;27.80;49.50
68658;DHT22;55639;53.480;-2.228;2022-08-03T07:34:19;27.80;49.50
68658;DHT22;55639;53.480;-2.228;2022-08-03T07:36:45;27.80;49.50
68658;DHT22;55639;53.480;-2.228;2022-08-03T07:39:11;27.80;49.40
68658;DHT22;55639;53.480;-2.228;2022-08-03T07:41:36;27.80;49.50
68658;DHT22;55639;53.480;-2.228;2022-08-03T07:44:02;27.80;49.80
68658;DHT22;55639;53.480;-2.228;2022-08-03T07:46:28;27.80;49.80
68658;DHT22;55639;53.480;-2.228;2022-08-03T07:48:53;27.80;50.10
68658;DHT22;55639;53.480;-2.228;2022-08-03T07:51:19;27.80;50.10
68658;DHT22;55639;53.480;-2.228;2022-08-03T07:53:45;27.80;50.00
68658;DHT22;55639;53.480;-2.228;2022-08-03T07:56:10;27.80;51.20
68658;DHT22;55639;53.480;-2.228;2022-08-03T07:58:36;27.80;51.10
68658;DHT22;55639;53.480;-2.228;2022-08-03T08:01:02;27.80;51.00
68658;DHT22;55639;53.480;-2.228;2022-08-03T08:03:27;27.80;50.90
68658;DHT22;55639;53.480;-2.228;2022-08-03T08:05:53;27.80;50.80
68658;DHT22;55639;53.480;-2.228;2022-08-03T08:08:19;27.80;50.70
68658;DHT22;55639;53.480;-2.228;2022-08-03T08:10:48;27.80;50.70
68658;DHT22;55639;53.480;-2.228;2022-08-03T08:13:13;27.80;50.80
68658;DHT22;55639;53.480;-2.228;2022-08-03T08:15:39;27.80;50.80
68658;DHT22;55639;53.480;-2.228;2022-08-03T08:18:05;27.80;50.80
68658;DHT22;55639;53.480;-2.228;2022-08-03T08:20:33;27.80;51.10
68658;DHT22;55639;53.480;-2.228;2022-08-03T08:23:01;27.80;50.80
68658;DHT22;55639;53.480;-2.228;2022-08-03T08:25:27;27.80;50.90
68658;DHT22;55639;53.480;-2.228;2022-08-03T08:27:53;27.80;51.00
68658;DHT22;55639;53.480;-2.228;2022-08-03T08:30:20;27.80;51.00
68658;DHT22;55639;53.480;-2.228;2022-08-03T08:32:47;27.80;51.00
68658;DHT22;55639;53.480;-2.228;2022-08-03T08:35:13;27.80;50.90
68658;DHT22;55639;53.480;-2.228;2022-08-03T08:37:39;27.90;51.00
68658;DHT22;55639;53.480;-2.228;2022-08-03T08:40:06;27.90;50.90
68658;DHT22;55639;53.480;-2.228;2022-08-03T08:42:32;27.90;50.90
68658;DHT22;55639;53.480;-2.228;2022-08-03T08:45:02;27.90;50.90
68658;DHT22;55639;53.480;-2.228;2022-08-03T08:47:30;27.90;50.80
68658;DHT22;55639;53.480;-2.228;2022-08-03T08:49:57;27.90;50.80
68658;DHT22;55639;53.480;-2.228;2022-08-03T08:52:25;27.90;50.80
68658;DHT22;55639;53.480;-2.228;2022-08-03T08:55:02;27.90;50.90
68658;DHT22;55639;53.480;-2.228;2022-08-03T08:57:30;27.90;50.90
68658;DHT22;55639;53.480;-2.228;2022-08-03T08:59:58;27.90;51.00
68658;DHT22;55639;53.480;-2.228;2022-08-03T09:02:28;27.90;50.90
68658;DHT22;55639;53.480;-2.228;2022-08-03T09:04:55;27.90;50.90
68658;DHT22;55639;53.480;-2.228;2022-08-03T09:07:21;27.90;50.90
68658;DHT22;55639;53.480;-2.228;2022-08-03T09:09:47;27.90;50.90
68658;DHT22;55639;53.480;-2.228;2022-08-03T09:12:14;27.90;50.80
68658;DHT22;55639;53.480;-2.228;2022-08-03T09:14:39;27.90;51.00
68658;DHT22;55639;53.480;-2.228;2022-08-03T09:17:05;27.90;50.90
68658;DHT22;55639;53.480;-2.228;2022-08-03T09:19:32;27.90;50.90
68658;DHT22;55639;53.480;-2.228;2022-08-03T09:22:12;27.90;50.90
68658;DHT22;55639;53.480;-2.228;2022-08-03T09:25:00;27.90;50.90
68658;DHT22;55639;53.480;-2.228;2022-08-03T09:27:25;27.90;50.80
68658;DHT22;55639;53.480;-2.228;2022-08-03T09:29:52;27.90;51.00
68658;DHT22;55639;53.480;-2.228;2022-08-03T09:32:20;27.90;50.80
68658;DHT22;55639;53.480;-2.228;2022-08-03T09:34:51;27.90;50.80
68658;DHT22;55639;53.480;-2.228;2022-08-03T09:37:19;27.90;50.80
68658;DHT22;55639;53.480;-2.228;2022-08-03T09:39:46;27.90;50.80
68658;DHT22;55639;53.480;-2.228;2022-08-03T09:42:17;27.90;51.40
68658;DHT22;55639;53.480;-2.228;2022-08-03T09:44:45;27.90;50.90
68658;DHT22;55639;53.480;-2.228;2022-08-03T09:47:13;27.90;50.90
68658;DHT22;55639;53.480;-2.228;2022-08-03T09:49:40;27.90;50.80
68658;DHT22;55639;53.480;-2.228;2022-08-03T09:52:18;27.90;50.80
68658;DHT22;55639;53.480;-2.228;2022-08-03T09:54:55;27.90;50.80
68658;DHT22;55639;53.480;-2.228;2022-08-03T09:57:22;27.90;50.80
68658;DHT22;55639;53.480;-2.228;2022-08-03T09:59:49;27.90;50.70
68658;DHT22;55639;53.480;-2.228;2022-08-03T10:02:23;27.90;51.00
68658;DHT22;55639;53.480;-2.228;2022-08-03T10:04:50;27.90;50.90
68658;DHT22;55639;53.480;-2.228;2022-08-03T10:07:22;27.90;50.80
68658;DHT22;55639;53.480;-2.228;2022-08-03T10:09:56;27.90;50.80
68658;DHT22;55639;53.480;-2.228;2022-08-03T10:12:23;27.90;50.70
68658;DHT22;55639;53.480;-2.228;2022-08-03T10:14:50;27.90;50.70
68658;DHT22;55639;53.480;-2.228;2022-08-03T10:17:19;27.90;50.60
68658;DHT22;55639;53.480;-2.228;2022-08-03T10:19:45;27.90;50.50
68658;DHT22;55639;53.480;-2.228;2022-08-03T10:22:35;27.90;50.50
68658;DHT22;55639;53.480;-2.228;2022-08-03T10:25:09;27.90;50.40
68658;DHT22;55639;53.480;-2.228;2022-08-03T10:27:41;27.90;50.30
68658;DHT22;55639;53.480;-2.228;2022-08-03T10:30:09;27.90;50.20
68658;DHT22;55639;53.480;-2.228;2022-08-03T10:33:16;27.90;50.20
68658;DHT22;55639;53.480;-2.228;2022-08-03T10:35:43;27.90;50.10
68658;DHT22;55639;53.480;-2.228;2022-08-03T10:38:13;27.90;50.10
68658;DHT22;55639;53.480;-2.228;2022-08-03T10:40:41;27.90;50.00
68658;DHT22;55639;53.480;-2.228;2022-08-03T10:43:11;27.90;50.00
68658;DHT22;55639;53.480;-2.228;2022-08-03T10:45:40;27.90;49.90
68658;DHT22;55639;53.480;-2.228;2022-08-03T10:48:07;27.90;49.80
68658;DHT22;55639;53.480;-2.228;2022-08-03T10:50:33;27.90;49.70
68658;DHT22;55639;53.480;-2.228;2022-08-03T10:53:02;27.90;49.80
68658;DHT22;55639;53.480;-2.228;2022-08-03T11:01:10;27.90;49.60
68658;DHT22;55639;53.480;-2.228;2022-08-03T11:06:26;27.90;49.50
68658;DHT22;55639;53.480;-2.228;2022-08-03T11:09:21;27.90;49.50
68658;DHT22;55639;53.480;-2.228;2022-08-03T11:11:47;27.90;49.60
68658;DHT22;55639;53.480;-2.228;2022-08-03T11:14:20;27.90;49.60
68658;DHT22;55639;53.480;-2.228;2022-08-03T11:16:47;27.90;49.50
68658;DHT22;55639;53.480;-2.228;2022-08-03T11:19:19;27.90;49.60
68658;DHT22;55639;53.480;-2.228;2022-08-03T11:32:55;27.90;49.50
68658;DHT22;55639;53.480;-2.228;2022-08-03T11:35:27;27.90;49.40
68658;DHT22;55639;53.480;-2.228;2022-08-03T11:40:42;27.90;49.40
68658;DHT22;55639;53.480;-2.228;2022-08-03T11:48:39;27.90;49.40
68658;DHT22;55639;53.480;-2.228;2022-08-03T11:51:25;27.90;49.30
68658;DHT22;55639;53.480;-2.228;2022-08-03T11:56:18;27.90;49.30
68658;DHT22;55639;53.480;-2.228;2022-08-03T11:58:53;27.90;49.20
68658;DHT22;55639;53.480;-2.228;2022-08-03T12:01:21;27.90;49.20
68658;DHT22;55639;53.480;-2.228;2022-08-03T12:03:51;27.90;49.20
68658;DHT22;55639;53.480;-2.228;2022-08-03T12:06:17;27.90;49.10
68658;DHT22;55639;53.480;-2.228;2022-08-03T12:08:44;27.90;49.20
68658;DHT22;55639;53.480;-2.228;2022-08-03T12:11:13;27.90;49.40
68658;DHT22;55639;53.480;-2.228;2022-08-03T12:16:06;27.90;49.40
68658;DHT22;55639;53.480;-2.228;2022-08-03T12:18:33;27.90;49.40
68658;DHT22;55639;53.480;-2.228;2022-08-03T12:21:08;27.90;49.40
68658;DHT22;55639;53.480;-2.228;2022-08-03T12:23:35;27.90;49.40
68658;DHT22;55639;53.480;-2.228;2022-08-03T12:26:03;27.90;49.60
68658;DHT22;55639;53.480;-2.228;2022-08-03T12:28:30;27.90;49.50
68658;DHT22;55639;53.480;-2.228;2022-08-03T12:31:00;28.00;49.50
68658;DHT22;55639;53.480;-2.228;2022-08-03T12:33:27;28.00;49.40
68658;DHT22;55639;53.480;-2.228;2022-08-03T12:36:09;28.00;49.30
68658;DHT22;55639;53.480;-2.228;2022-08-03T12:38:37;28.00;49.40
68658;DHT22;55639;53.480;-2.228;2022-08-03T12:41:09;28.00;49.30
68658;DHT22;55639;53.480;-2.228;2022-08-03T12:43:50;28.00;49.10
68658;DHT22;55639;53.480;-2.228;2022-08-03T12:46:17;28.00;49.40
68658;DHT22;55639;53.480;-2.228;2022-08-03T12:54:19;28.00;49.50
68658;DHT22;55639;53.480;-2.228;2022-08-03T12:57:01;28.00;49.60
68658;DHT22;55639;53.480;-2.228;2022-08-03T12:59:32;28.10;49.50
68658;DHT22;55639;53.480;-2.228;2022-08-03T13:01:58;28.00;49.80
68658;DHT22;55639;53.480;-2.228;2022-08-03T13:04:29;28.10;49.80
68658;DHT22;55639;53.480;-2.228;2022-08-03T13:07:00;28.10;50.20
68658;DHT22;55639;53.480;-2.228;2022-08-03T13:09:27;28.10;49.60
68658;DHT22;55639;53.480;-2.228;2022-08-03T13:12:15;28.00;49.60
68658;DHT22;55639;53.480;-2.228;2022-08-03T13:14:42;28.10;49.70
68658;DHT22;55639;53.480;-2.228;2022-08-03T13:17:08;28.10;49.70
68658;DHT22;55639;53.480;-2.228;2022-08-03T13:19:35;28.10;49.70
68658;DHT22;55639;53.480;-2.228;2022-08-03T13:22:16;28.10;49.70
68658;DHT22;55639;53.480;-2.228;2022-08-03T13:24:44;28.10;49.80
68658;DHT22;55639;53.480;-2.228;2022-08-03T13:27:11;28.10;49.80
68658;DHT22;55639;53.480;-2.228;2022-08-03T13:29:37;28.10;49.80
68658;DHT22;55639;53.480;-2.228;2022-08-03T13:32:03;28.10;49.90
68658;DHT22;55639;53.480;-2.228;2022-08-03T13:34:29;28.10;49.70
68658;DHT22;55639;53.480;-2.228;2022-08-03T13:36:55;28.10;49.80
68658;DHT22;55639;53.480;-2.228;2022-08-03T13:39:21;28.10;49.80
68658;DHT22;55639;53.480;-2.228;2022-08-03T13:41:47;28.10;50.00
68658;DHT22;55639;53.480;-2.228;2022-08-03T13:44:13;28.10;49.90
68658;DHT22;55639;53.480;-2.228;2022-08-03T13:46:39;28.10;49.70
68658;DHT22;55639;53.480;-2.228;2022-08-03T13:49:05;28.10;49.70
68658;DHT22;55639;53.480;-2.228;2022-08-03T13:51:32;28.10;49.70
68658;DHT22;55639;53.480;-2.228;2022-08-03T13:53:58;28.10;49.90
68658;DHT22;55639;53.480;-2.228;2022-08-03T13:56:28;28.10;49.80
68658;DHT22;55639;53.480;-2.228;2022-08-03T13:58:54;28.20;49.70
68658;DHT22;55639;53.480;-2.228;2022-08-03T14:01:20;28.20;49.80
68658;DHT22;55639;53.480;-2.228;2022-08-03T14:03:46;28.20;49.70
68658;DHT22;55639;53.480;-2.228;2022-08-03T14:06:19;28.20;49.80
68658;DHT22;55639;53.480;-2.228;2022-08-03T14:08:45;28.20;49.80
68658;DHT22;55639;53.480;-2.228;2022-08-03T14:11:12;28.20;49.70
68658;DHT22;55639;53.480;-2.228;2022-08-03T14:13:38;28.20;49.70
68658;DHT22;55639;53.480;-2.228;2022-08-03T14:16:04;28.20;49.70
68658;DHT22;55639;53.480;-2.228;2022-08-03T14:18:29;28.20;49.70
68658;DHT22;55639;53.480;-2.228;2022-08-03T14:20:57;28.30;50.00
68658;DHT22;55639;53.480;-2.228;2022-08-03T14:23:22;28.30;49.40
68658;DHT22;55639;53.480;-2.228;2022-08-03T14:25:48;28.30;49.40
68658;DHT22;55639;53.480;-2.228;2022-08-03T14:28:13;28.30;48.90
68658;DHT22;55639;53.480;-2.228;2022-08-03T14:30:39;28.40;49.30
68658;DHT22;55639;53.480;-2.228;2022-08-03T14:33:05;28.40;49.30
68658;DHT22;55639;53.480;-2.228;2022-08-03T14:35:30;28.50;49.70
68658;DHT22;55639;53.480;-2.228;2022-08-03T14:37:56;28.50;49.60
68658;DHT22;55639;53.480;-2.228;2022-08-03T14:40:22;28.50;49.60
68658;DHT22;55639;53.480;-2.228;2022-08-03T14:42:47;28.50;49.60
68658;DHT22;55639;53.480;-2.228;2022-08-03T14:45:13;28.60;49.60
68658;DHT22;55639;53.480;-2.228;2022-08-03T14:47:39;28.60;49.50
68658;DHT22;55639;53.480;-2.228;2022-08-03T14:50:06;28.70;49.50
68658;DHT22;55639;53.480;-2.228;2022-08-03T14:52:32;28.70;49.40
68658;DHT22;55639;53.480;-2.228;2022-08-03T14:54:58;28.70;49.30
68658;DHT22;55639;53.480;-2.228;2022-08-03T14:57:24;28.80;49.30
68658;DHT22;55639;53.480;-2.228;2022-08-03T14:59:50;28.80;49.10
68658;DHT22;55639;53.480;-2.228;2022-08-03T15:02:16;28.90;49.10
68658;DHT22;55639;53.480;-2.228;2022-08-03T15:04:41;28.90;49.00
68658;DHT22;55639;53.480;-2.228;2022-08-03T15:07:07;28.90;48.90
68658;DHT22;55639;53.480;-2.228;2022-08-03T15:09:33;29.00;48.80
68658;DHT22;55639;53.480;-2.228;2022-08-03T15:11:58;29.00;48.70
68658;DHT22;55639;53.480;-2.228;2022-08-03T15:14:24;29.00;48.60
68658;DHT22;55639;53.480;-2.228;2022-08-03T15:16:50;29.00;48.50
68658;DHT22;55639;53.480;-2.228;2022-08-03T15:19:16;29.10;48.50
68658;DHT22;55639;53.480;-2.228;2022-08-03T15:21:42;29.10;48.50
68658;DHT22;55639;53.480;-2.228;2022-08-03T15:24:07;29.10;48.50
68658;DHT22;55639;53.480;-2.228;2022-08-03T15:26:33;29.00;48.50
68658;DHT22;55639;53.480;-2.228;2022-08-03T15:28:58;29.10;48.50
68658;DHT22;55639;53.480;-2.228;2022-08-03T15:31:24;29.10;48.40
68658;DHT22;55639;53.480;-2.228;2022-08-03T15:33:50;29.10;48.40
68658;DHT22;55639;53.480;-2.228;2022-08-03T15:36:17;29.10;48.20
68658;DHT22;55639;53.480;-2.228;2022-08-03T15:38:43;29.10;48.10
68658;DHT22;55639;53.480;-2.228;2022-08-03T15:41:10;29.10;48.10
68658;DHT22;55639;53.480;-2.228;2022-08-03T15:43:36;29.00;48.10
68658;DHT22;55639;53.480;-2.228;2022-08-03T15:46:02;29.10;48.20
68658;DHT22;55639;53.480;-2.228;2022-08-03T15:48:27;29.00;48.20
68658;DHT22;55639;53.480;-2.228;2022-08-03T15:50:53;29.00;48.20
68658;DHT22;55639;53.480;-2.228;2022-08-03T15:53:19;29.00;48.40
68658;DHT22;55639;53.480;-2.228;2022-08-03T15:55:45;29.00;48.50
68658;DHT22;55639;53.480;-2.228;2022-08-03T15:58:11;29.00;48.50
68658;DHT22;55639;53.480;-2.228;2022-08-03T16:00:37;29.00;48.50
68658;DHT22;55639;53.480;-2.228;2022-08-03T16:03:03;29.00;49.10
68658;DHT22;55639;53.480;-2.228;2022-08-03T16:05:29;29.00;48.50
68658;DHT22;55639;53.480;-2.228;2022-08-03T16:07:54;29.00;48.50
68658;DHT22;55639;53.480;-2.228;2022-08-03T16:10:20;29.00;48.50